Time;durP1;ratioP1;P1;durP2;ratioP2;P2;SDS_P1;SDS_P2;PMS_P1;PMS_P2;Temp;Humidity;BMP_temperature;BMP_pressure;BME280_temperature;BME280_humidity;BME280_pressure;Samples;Min_cycle;Max_cycle;Signal;HPM_P1;HPM_P2
2022/04/13 00:00:56;;;;;;;8.30;1.98;;;;;;;16.15;65.71;100726.78;5067303;28;20048;-60
2022/04/13 00:03:23;;;;;;;4.95;1.88;;;;;;;15.88;66.44;100722.78;5069707;28;20155;-61
2022/04/13 00:05:50;;;;;;;5.50;1.60;;;;;;;15.79;67.08;100722.88;5073219;28;20385;-58
2022/04/13 00:08:18;;;;;;;5.38;2.00;;;;;;;15.98;66.68;100730.66;5075060;28;20044;-59
2022/04/13 00:10:45;;;;;;;6.50;1.88;;;;;;;15.74;67.42;100728.69;5075517;28;20046;-60
2022/04/13 00:13:13;;;;;;;6.78;1.80;;;;;;;16.07;66.68;100738.84;5075343;28;20052;-59
2022/04/13 00:15:41;;;;;;;7.65;1.58;;;;;;;16.13;66.12;100737.44;5072872;28;20064;-60
2022/04/13 00:18:09;;;;;;;9.25;1.75;;;;;;;16.12;65.96;100742.22;5073829;28;20401;-61
2022/04/13 00:20:36;;;;;;;7.43;1.70;;;;;;;15.79;67.22;100750.66;5065932;28;20060;-59
2022/04/13 00:23:04;;;;;;;8.27;2.03;;;;;;;15.56;68.43;100743.97;5075493;28;20380;-57
2022/04/13 00:25:31;;;;;;;7.20;1.95;;;;;;;15.60;68.38;100747.66;5075003;28;20048;-57
2022/04/13 00:27:58;;;;;;;7.00;1.63;;;;;;;15.82;67.70;100749.19;5072776;28;20044;-60
2022/04/13 00:30:26;;;;;;;7.13;1.77;;;;;;;16.07;67.02;100744.41;5060952;28;20439;-59
2022/04/13 00:32:53;;;;;;;8.95;1.65;;;;;;;16.13;66.49;100760.50;5074184;28;20076;-59
2022/04/13 00:35:21;;;;;;;6.10;1.67;;;;;;;16.19;66.35;100756.31;5082854;28;20037;-61
2022/04/13 00:37:48;;;;;;;7.78;2.33;;;;;;;16.25;66.16;100763.25;5090120;28;20056;-61
2022/04/13 00:40:16;;;;;;;6.15;2.08;;;;;;;16.10;66.61;100766.75;5075747;28;20052;-59
2022/04/13 00:42:43;;;;;;;9.50;2.05;;;;;;;16.24;66.49;100769.97;5070228;28;20041;-61
2022/04/13 00:45:11;;;;;;;6.43;1.63;;;;;;;16.23;66.72;100768.34;5063092;28;20044;-59
2022/04/13 00:47:40;;;;;;;7.65;1.67;;;;;;;16.26;66.38;100762.09;5074399;28;20504;-60
2022/04/13 00:50:08;;;;;;;11.70;2.05;;;;;;;16.06;67.38;100759.44;5074857;28;20048;-60
2022/04/13 00:52:38;;;;;;;5.93;1.60;;;;;;;16.00;67.47;100752.53;5074880;28;20048;-61
2022/04/13 00:55:07;;;;;;;;;;;;;;;16.14;66.86;100739.09;5073987;28;20040;-59
2022/04/13 00:57:36;;;;;;;10.10;2.13;;;;;;;15.92;67.69;100743.16;5075475;28;19920;-59
2022/04/13 01:00:05;;;;;;;8.27;1.83;;;;;;;15.91;68.12;100744.31;5065666;28;20063;-61
2022/04/13 01:02:36;;;;;;;9.20;1.80;;;;;;;16.28;66.71;100745.91;5074534;28;20057;-60
2022/04/13 01:05:05;;;;;;;10.07;2.03;;;;;;;16.39;66.10;100748.97;5073364;28;20048;-58
2022/04/13 01:07:33;;;;;;;8.20;2.10;;;;;;;16.00;67.42;100749.75;5073282;28;20056;-60
2022/04/13 01:10:05;;;;;;;8.40;2.10;;;;;;;16.10;67.32;100757.59;5073322;28;20052;-58
2022/04/13 01:12:36;;;;;;;8.65;2.35;;;;;;;16.06;67.29;100760.25;5072336;28;20055;-58
2022/04/13 01:15:04;;;;;;;5.38;1.77;;;;;;;15.82;68.38;100756.69;5090097;28;20052;-61
2022/04/13 01:17:32;;;;;;;5.47;1.75;;;;;;;15.54;69.70;100771.25;5074199;28;20542;-59
2022/04/13 01:20:05;;;;;;;7.18;2.03;;;;;;;15.74;68.94;100766.78;5074351;28;20526;-62
2022/04/13 01:22:32;;;;;;;7.38;1.60;;;;;;;15.87;68.70;100767.56;5074495;28;20070;-57
2022/04/13 01:24:59;;;;;;;9.30;2.00;;;;;;;15.72;69.15;100761.56;5074189;28;20843;-61
2022/04/13 01:27:27;;;;;;;8.85;1.90;;;;;;;15.85;68.71;100759.59;5070404;28;20527;-60
2022/04/13 01:29:54;;;;;;;6.60;1.77;;;;;;;15.71;69.51;100771.03;5074323;28;20045;-59
2022/04/13 01:32:22;;;;;;;8.25;2.13;;;;;;;15.86;68.83;100765.97;5074194;28;20491;-61
2022/04/13 01:34:50;;;;;;;8.23;1.83;;;;;;;15.78;69.47;100770.47;5072708;28;20061;-58
2022/04/13 01:37:18;;;;;;;10.48;2.08;;;;;;;15.98;68.59;100763.19;5074231;28;20045;-60
2022/04/13 01:39:45;;;;;;;7.40;2.03;;;;;;;15.72;69.67;100767.13;5075769;28;20543;-60
2022/04/13 01:42:13;;;;;;;8.45;1.98;;;;;;;15.88;69.26;100775.56;5073541;28;20056;-59
2022/04/13 01:44:45;;;;;;;9.25;2.00;;;;;;;15.94;68.87;100776.13;5077303;28;20049;-59
2022/04/13 01:47:13;;;;;;;5.13;1.80;;;;;;;15.88;69.15;100774.75;5062898;28;20512;-59
2022/04/13 01:49:40;;;;;;;7.70;2.03;;;;;;;15.84;69.24;100784.94;5075025;28;20072;-59
2022/04/13 01:52:09;;;;;;;8.60;2.22;;;;;;;16.03;68.84;100788.75;5071475;28;20064;-58
2022/04/13 01:54:37;;;;;;;7.72;2.00;;;;;;;15.97;68.80;100789.34;5078077;28;20049;-59
2022/04/13 01:57:04;;;;;;;9.07;2.55;;;;;;;15.88;69.19;100778.34;5076271;28;20040;-59
2022/04/13 01:59:32;;;;;;;9.95;2.00;;;;;;;15.92;69.12;100778.47;5078195;28;20060;-59
2022/04/13 02:02:02;;;;;;;8.02;2.20;;;;;;;15.89;69.28;100784.69;5077980;28;20044;-56
2022/04/13 02:04:30;;;;;;;9.20;2.55;;;;;;;15.90;69.26;100786.34;5074604;28;20041;-61
2022/04/13 02:06:58;;;;;;;8.98;2.15;;;;;;;15.95;69.02;100791.66;5072622;28;20040;-59
2022/04/13 02:09:25;;;;;;;10.63;2.45;;;;;;;15.80;69.65;100793.16;5078009;28;20059;-59
2022/04/13 02:11:53;;;;;;;11.15;2.08;;;;;;;15.79;69.87;100799.88;5077952;28;20053;-60
2022/04/13 02:14:20;;;;;;;4.97;1.70;;;;;;;15.79;70.04;100805.44;5077551;28;20045;-61
2022/04/13 02:16:47;;;;;;;8.90;2.55;;;;;;;15.80;70.27;100801.47;5076066;28;20048;-59
2022/04/13 02:19:15;;;;;;;8.73;2.17;;;;;;;15.91;70.04;100801.84;5077589;28;20044;-59
2022/04/13 02:21:42;;;;;;;8.48;2.00;;;;;;;15.89;69.98;100809.69;5072488;28;20048;-58
2022/04/13 02:24:09;;;;;;;10.40;2.45;;;;;;;15.72;70.86;100814.34;5077281;28;20041;-60
2022/04/13 02:26:37;;;;;;;7.32;2.13;;;;;;;15.90;70.75;100812.13;5077138;28;20048;-60
2022/04/13 02:29:04;;;;;;;8.75;2.65;;;;;;;15.86;70.93;100814.00;5077081;28;20159;-60
2022/04/13 02:31:32;;;;;;;7.22;2.53;;;;;;;16.17;70.37;100818.97;5077651;28;20049;-60
2022/04/13 02:33:59;;;;;;;5.38;2.15;;;;;;;15.85;71.82;100815.13;5077417;28;20048;-59
2022/04/13 02:36:26;;;;;;;9.45;2.20;;;;;;;15.74;72.85;100816.78;5069803;28;20650;-60
2022/04/13 02:38:54;;;;;;;9.32;2.58;;;;;;;15.75;73.56;100815.59;5077396;28;20056;-59
2022/04/13 02:41:21;;;;;;;8.20;2.55;;;;;;;15.56;74.56;100809.78;5077309;28;20055;-61
2022/04/13 02:43:48;;;;;;;8.73;2.97;;;;;;;15.58;75.14;100815.81;5075315;28;20053;-59
2022/04/13 02:46:16;;;;;;;9.52;2.25;;;;;;;15.63;74.89;100816.41;5077385;28;20052;-57
2022/04/13 02:48:43;;;;;;;12.95;2.47;;;;;;;15.59;75.33;100822.97;5076165;28;20420;-61
2022/04/13 02:51:11;;;;;;;10.40;2.70;;;;;;;15.48;76.17;100810.72;5073373;28;20499;-59
2022/04/13 02:53:38;;;;;;;9.98;2.85;;;;;;;15.54;76.46;100812.09;5077110;28;20080;-61
2022/04/13 02:56:05;;;;;;;9.35;2.65;;;;;;;15.57;76.65;100805.84;5077067;28;20605;-59
2022/04/13 02:58:32;;;;;;;8.43;2.60;;;;;;;15.47;77.64;100814.63;5076459;28;20053;-59
2022/04/13 03:01:00;;;;;;;10.20;2.83;;;;;;;15.43;78.11;100808.16;5075546;28;21339;-59
2022/04/13 03:03:27;;;;;;;9.35;2.90;;;;;;;15.46;77.80;100808.25;5075226;28;20393;-60
2022/04/13 03:05:55;;;;;;;12.38;2.53;;;;;;;15.49;78.21;100804.81;5074856;28;20048;-59
2022/04/13 03:08:22;;;;;;;10.70;3.17;;;;;;;15.49;78.37;100815.91;5076287;28;20044;-58
2022/04/13 03:10:49;;;;;;;9.95;2.53;;;;;;;15.47;78.65;100831.28;5076594;28;20040;-60
2022/04/13 03:13:17;;;;;;;12.52;2.97;;;;;;;15.18;80.09;100831.41;5075026;28;20048;-61
2022/04/13 03:15:44;;;;;;;11.32;3.05;;;;;;;15.23;80.42;100834.78;5074573;28;20072;-60
2022/04/13 03:18:11;;;;;;;8.95;2.78;;;;;;;15.25;80.15;100839.97;5074879;28;20051;-60
2022/04/13 03:20:39;;;;;;;10.43;2.63;;;;;;;15.16;81.13;100836.47;5074457;28;20522;-59
2022/04/13 03:23:06;;;;;;;16.33;3.35;;;;;;;15.33;80.76;100841.84;5062950;28;20132;-60
2022/04/13 03:25:33;;;;;;;11.10;3.35;;;;;;;15.21;81.09;100847.34;5076359;28;20036;-61
2022/04/13 03:28:00;;;;;;;11.05;2.80;;;;;;;15.13;81.42;100843.50;5075898;28;20037;-61
2022/04/13 03:30:28;;;;;;;9.63;3.17;;;;;;;15.15;81.83;100841.19;5074499;28;20148;-60
2022/04/13 03:32:55;;;;;;;10.30;2.67;;;;;;;15.26;81.78;100859.06;5078050;28;20056;-61
2022/04/13 03:35:23;;;;;;;13.73;3.42;;;;;;;15.02;82.56;100861.72;5058512;28;20082;-61
2022/04/13 03:37:50;;;;;;;13.45;3.20;;;;;;;15.09;82.91;100853.69;5075647;28;20056;-59
2022/04/13 03:40:18;;;;;;;13.63;3.60;;;;;;;15.16;82.50;100853.94;5074032;28;20044;-61
2022/04/13 03:42:45;;;;;;;8.80;2.83;;;;;;;15.11;83.16;100853.34;5074635;28;20071;-60
2022/04/13 03:45:13;;;;;;;11.98;3.17;;;;;;;15.16;83.46;100855.88;5073389;28;20052;-58
2022/04/13 03:47:41;;;;;;;11.55;3.45;;;;;;;15.12;83.64;100857.72;5075541;28;20067;-61
2022/04/13 03:50:09;;;;;;;9.68;2.92;;;;;;;15.20;83.32;100860.41;5071919;28;20056;-60
2022/04/13 03:52:37;;;;;;;13.65;3.20;;;;;;;15.11;83.73;100856.91;5073475;28;20044;-60
2022/04/13 03:55:06;;;;;;;12.02;3.83;;;;;;;15.09;84.05;100863.94;5066613;28;20059;-58
2022/04/13 03:57:34;;;;;;;11.40;4.03;;;;;;;14.82;85.43;100868.06;5075196;28;20048;-61
2022/04/13 04:00:02;;;;;;;11.10;3.90;;;;;;;14.91;85.53;100874.38;5074578;28;20389;-60
2022/04/13 04:02:39;;;;;;;12.23;3.80;;;;;;;14.92;85.42;100872.44;5072387;28;20055;-58
2022/04/13 04:05:07;;;;;;;16.80;3.70;;;;;;;14.84;86.69;100868.56;5075195;28;20064;-59
2022/04/13 04:07:34;;;;;;;11.45;4.05;;;;;;;14.86;86.70;100882.09;5074139;28;20045;-58
2022/04/13 04:10:03;;;;;;;14.55;4.78;;;;;;;14.61;87.71;100872.78;5088084;28;20051;-59
2022/04/13 04:12:36;;;;;;;14.95;4.55;;;;;;;14.40;89.66;100870.00;5076267;28;20056;-58
2022/04/13 04:15:04;;;;;;;11.77;4.47;;;;;;;14.31;90.69;100873.97;5074755;28;20055;-58
2022/04/13 04:17:31;;;;;;;14.50;4.55;;;;;;;14.44;90.75;100884.81;5075393;28;20052;-60
2022/04/13 04:19:58;;;;;;;15.18;4.10;;;;;;;14.59;90.10;100872.34;5073638;28;20060;-61
2022/04/13 04:22:26;;;;;;;12.88;4.53;;;;;;;14.77;88.97;100882.16;5083607;28;20048;-62
2022/04/13 04:24:53;;;;;;;14.25;5.00;;;;;;;14.62;89.79;100888.31;5081717;28;20056;-60
2022/04/13 04:27:21;;;;;;;13.40;4.20;;;;;;;14.62;89.98;100888.31;5085294;28;20045;-60
2022/04/13 04:29:48;;;;;;;15.25;5.18;;;;;;;14.56;90.63;100884.91;5074810;28;20055;-59
2022/04/13 04:32:15;;;;;;;12.93;4.63;;;;;;;14.41;90.86;100895.75;5073671;28;20048;-59
2022/04/13 04:34:43;;;;;;;13.05;4.32;;;;;;;14.30;91.66;100892.56;5072887;28;20052;-60
2022/04/13 04:37:10;;;;;;;12.13;4.07;;;;;;;14.15;91.62;100897.81;5074738;28;20040;-60
2022/04/13 04:39:37;;;;;;;13.27;4.55;;;;;;;14.24;92.43;100909.69;5070647;28;20040;-58
2022/04/13 04:42:05;;;;;;;13.45;5.05;;;;;;;14.06;93.18;100905.34;5069484;28;20064;-60
2022/04/13 04:44:33;;;;;;;12.15;4.03;;;;;;;14.25;93.36;100905.75;5071263;28;20055;-60
2022/04/13 04:47:00;;;;;;;15.40;4.60;;;;;;;14.43;92.10;100910.94;5074541;28;20052;-60
2022/04/13 04:49:27;;;;;;;14.57;5.03;;;;;;;14.49;91.41;100905.97;5072876;28;20045;-59
2022/04/13 04:51:55;;;;;;;11.68;4.55;;;;;;;14.24;92.56;100904.94;5074749;28;20051;-60
2022/04/13 04:54:22;;;;;;;19.58;4.88;;;;;;;14.29;91.70;100901.22;5073086;28;20052;-59
2022/04/13 04:56:49;;;;;;;13.43;4.47;;;;;;;13.95;93.45;100909.63;5074802;28;20048;-60
2022/04/13 04:59:17;;;;;;;12.75;4.85;;;;;;;14.01;94.41;100903.59;5074375;28;20403;-62
2022/04/13 05:01:44;;;;;;;14.07;4.53;;;;;;;14.11;94.57;100905.16;5074709;28;20469;-58
2022/04/13 05:04:12;;;;;;;14.35;5.07;;;;;;;14.19;94.14;100904.31;5072992;28;20139;-59
2022/04/13 05:06:46;;;;;;;12.50;5.00;;;;;;;14.25;93.85;100908.53;5074535;28;20063;-61
2022/04/13 05:09:17;;;;;;;13.30;5.10;;;;;;;14.46;92.93;100917.75;5071897;28;20044;-59
2022/04/13 05:11:45;;;;;;;12.48;4.63;;;;;;;14.35;92.60;100919.25;5068649;28;20053;-59
2022/04/13 05:14:12;;;;;;;15.05;5.50;;;;;;;14.17;93.85;100920.47;5074420;28;20074;-59
2022/04/13 05:16:39;;;;;;;16.13;5.38;;;;;;;14.18;93.96;100922.91;5074340;28;20423;-59
2022/04/13 05:19:07;;;;;;;15.27;5.28;;;;;;;14.58;91.85;100917.84;5073215;28;20051;-60
2022/04/13 05:21:34;;;;;;;16.42;5.18;;;;;;;14.59;91.37;100927.78;5071018;28;20052;-57
2022/04/13 05:24:01;;;;;;;10.80;4.93;;;;;;;14.59;90.82;100933.34;5060524;28;20072;-60
2022/04/13 05:26:29;;;;;;;14.18;5.03;;;;;;;14.61;90.80;100931.00;5067559;28;20059;-60
2022/04/13 05:28:57;;;;;;;11.88;5.03;;;;;;;14.51;91.03;100921.13;5048152;28;20063;-59
2022/04/13 05:31:25;;;;;;;13.27;5.50;;;;;;;14.64;90.78;100924.81;5066992;28;20060;-61
2022/04/13 05:33:52;;;;;;;18.52;5.63;;;;;;;14.57;90.68;100925.31;5072309;28;20052;-61
2022/04/13 05:36:20;;;;;;;15.48;5.88;;;;;;;14.70;90.76;100929.00;5074557;28;20051;-57
2022/04/13 05:38:47;;;;;;;18.00;5.85;;;;;;;14.72;90.73;100931.44;5067776;28;20052;-61
2022/04/13 05:41:14;;;;;;;16.42;5.93;;;;;;;14.75;90.32;100922.47;5063072;28;20063;-58
2022/04/13 05:43:42;;;;;;;16.85;5.50;;;;;;;14.74;90.48;100921.66;5073502;28;20044;-59
2022/04/13 05:46:09;;;;;;;14.77;5.75;;;;;;;14.66;90.99;100930.84;5073594;28;20071;-58
2022/04/13 05:48:36;;;;;;;18.85;6.15;;;;;;;14.85;90.52;100933.16;5078275;28;20056;-58
2022/04/13 05:51:04;;;;;;;16.75;5.65;;;;;;;14.82;90.47;100936.63;5062978;28;20064;-57
2022/04/13 05:53:31;;;;;;;13.60;5.60;;;;;;;14.76;90.75;100944.31;5074028;28;20056;-59
2022/04/13 05:55:59;;;;;;;15.68;5.57;;;;;;;14.75;90.98;100944.66;5080449;28;20064;-61
2022/04/13 05:58:27;;;;;;;12.20;6.10;;;;;;;14.65;91.47;100943.88;5070275;28;20515;-59
2022/04/13 06:00:54;;;;;;;18.60;6.22;;;;;;;14.72;91.30;100948.91;5066584;28;20061;-61
2022/04/13 06:03:23;;;;;;;17.80;6.25;;;;;;;14.61;91.16;100947.66;5089002;28;20421;-61
2022/04/13 06:06:08;;;;;;;14.38;6.15;;;;;;;14.66;91.94;100956.59;5072373;28;20049;-61
2022/04/13 06:08:35;;;;;;;15.68;6.05;;;;;;;14.83;91.33;100964.00;5072583;28;20037;-60
2022/04/13 06:11:02;;;;;;;15.13;6.43;;;;;;;14.66;91.97;100966.88;5052635;28;20051;-60
2022/04/13 06:13:31;;;;;;;17.38;7.15;;;;;;;14.51;92.68;100968.25;5072059;28;20534;-60
2022/04/13 06:15:58;;;;;;;15.20;6.57;;;;;;;14.59;92.82;100972.94;5072267;28;20060;-60
2022/04/13 06:18:26;;;;;;;13.77;6.53;;;;;;;14.72;91.97;100976.63;5064657;28;20056;-59
2022/04/13 06:20:53;;;;;;;19.27;7.20;;;;;;;14.73;92.12;100978.28;5066108;28;20431;-57
2022/04/13 06:23:20;;;;;;;16.13;6.85;;;;;;;14.83;91.15;100982.59;5072422;28;20045;-58
2022/04/13 06:25:48;;;;;;;13.90;6.22;;;;;;;14.80;91.28;100981.34;5076238;28;20051;-60
2022/04/13 06:28:15;;;;;;;18.85;6.30;;;;;;;14.88;91.39;100983.22;5075365;28;20041;-58
2022/04/13 06:30:43;;;;;;;16.80;6.43;;;;;;;14.93;91.26;100993.31;5076763;28;20052;-60
2022/04/13 06:33:11;;;;;;;16.15;7.00;;;;;;;14.94;90.91;100998.50;5053367;28;20048;-56
2022/04/13 06:35:38;;;;;;;15.00;6.68;;;;;;;14.83;91.48;101000.06;5068414;28;20115;-58
2022/04/13 06:38:06;;;;;;;12.60;6.20;;;;;;;15.09;90.41;100999.91;5069742;28;20060;-58
2022/04/13 06:40:33;;;;;;;12.93;6.20;;;;;;;15.27;89.97;101002.19;5062551;28;20041;-60
2022/04/13 06:43:01;;;;;;;16.83;6.80;;;;;;;15.28;89.75;101006.63;5066625;28;20041;-60
2022/04/13 06:45:29;;;;;;;17.85;7.63;;;;;;;15.25;89.48;101020.34;5072601;28;20048;-58
2022/04/13 06:47:57;;;;;;;17.60;7.50;;;;;;;15.29;89.68;101013.78;5068399;28;20049;-58
2022/04/13 06:50:24;;;;;;;18.00;7.35;;;;;;;15.21;89.75;101028.56;5069926;28;20052;-59
2022/04/13 06:52:51;;;;;;;26.42;7.28;;;;;;;15.49;88.79;101028.84;5075552;28;20052;-57
2022/04/13 06:55:18;;;;;;;22.35;7.47;;;;;;;15.31;89.24;101044.78;5071080;28;20064;-67
2022/04/13 06:57:46;;;;;;;23.95;7.70;;;;;;;15.18;89.79;101050.59;5076624;28;20052;-56
2022/04/13 07:00:13;;;;;;;20.08;8.20;;;;;;;15.50;89.12;101058.25;5076383;28;20056;-58
2022/04/13 07:02:41;;;;;;;20.85;7.78;;;;;;;15.66;88.29;101051.75;5068523;28;20049;-55
2022/04/13 07:05:29;;;;;;;18.27;8.20;;;;;;;15.49;88.46;101068.56;5067373;28;20052;-57
2022/04/13 07:07:57;;;;;;;20.38;7.88;;;;;;;15.38;88.87;101072.84;5076253;28;20056;-57
2022/04/13 07:10:27;;;;;;;18.77;8.57;;;;;;;15.48;88.86;101080.00;5075040;28;20057;-57
2022/04/13 07:12:55;;;;;;;18.45;7.90;;;;;;;15.70;87.98;101079.66;5068901;28;20053;-56
2022/04/13 07:15:24;;;;;;;18.70;8.05;;;;;;;15.63;87.48;101085.75;5064861;28;20469;-59
2022/04/13 07:17:52;;;;;;;18.77;7.75;;;;;;;15.62;87.91;101088.88;5074625;28;20444;-59
2022/04/13 07:20:19;;;;;;;17.92;7.90;;;;;;;15.20;88.65;101096.28;5069289;28;20500;-57
2022/04/13 07:22:52;;;;;;;16.33;7.47;;;;;;;15.02;89.63;101096.72;5075226;28;20067;-56
2022/04/13 07:25:20;;;;;;;19.60;7.38;;;;;;;14.84;90.62;101095.97;5067625;28;20055;-57
2022/04/13 07:27:48;;;;;;;18.90;7.25;;;;;;;14.91;90.43;101104.59;5075113;28;20064;-58
2022/04/13 07:30:16;;;;;;;14.07;7.43;;;;;;;14.99;90.60;101098.22;5069278;28;20056;-59
2022/04/13 07:32:45;;;;;;;19.15;7.97;;;;;;;14.88;91.71;101108.03;5075706;28;20056;-59
2022/04/13 07:35:13;;;;;;;16.20;7.60;;;;;;;15.07;92.20;101111.22;5073397;28;20384;-56
2022/04/13 07:37:42;;;;;;;17.75;7.28;;;;;;;14.96;91.92;101117.47;5067468;28;20063;-58
2022/04/13 07:40:11;;;;;;;18.17;7.43;;;;;;;14.91;91.43;101101.81;5068138;28;20049;-58
2022/04/13 07:42:38;;;;;;;18.20;7.38;;;;;;;14.88;91.90;101102.50;5047502;28;20064;-58
2022/04/13 07:45:07;;;;;;;20.50;7.00;;;;;;;15.14;91.44;101103.19;5073532;28;20056;-54
2022/04/13 07:47:34;;;;;;;15.52;7.28;;;;;;;15.08;90.78;101112.03;5076562;28;20053;-59
2022/04/13 07:50:02;;;;;;;18.85;7.60;;;;;;;15.26;90.47;101114.38;5073982;28;20056;-57
2022/04/13 07:52:33;;;;;;;15.95;8.05;;;;;;;14.77;91.45;101120.63;5062083;28;20064;-57
2022/04/13 07:55:00;;;;;;;16.25;7.80;;;;;;;14.64;92.74;101116.91;5072194;28;20053;-58
2022/04/13 07:57:28;;;;;;;17.95;7.75;;;;;;;14.49;93.16;101114.69;5074524;28;20056;-55
2022/04/13 07:59:55;;;;;;;15.32;6.95;;;;;;;14.60;93.53;101109.59;5076687;28;20044;-55
2022/04/13 08:02:23;;;;;;;21.55;7.65;;;;;;;14.62;92.79;101112.88;5065829;28;20100;-57
2022/04/13 08:04:50;;;;;;;16.33;7.20;;;;;;;14.59;92.59;101113.53;5061326;28;20052;-57
2022/04/13 08:07:18;;;;;;;22.13;7.82;;;;;;;14.80;92.01;101111.69;5067981;28;20040;-59
2022/04/13 08:09:45;;;;;;;13.23;7.13;;;;;;;14.75;92.41;101113.81;5072291;28;20049;-52
2022/04/13 08:12:13;;;;;;;20.02;7.63;;;;;;;14.92;92.19;101117.34;5072123;28;20048;-56
2022/04/13 08:14:40;;;;;;;18.40;7.65;;;;;;;15.02;91.79;101113.34;5074503;28;20060;-58
2022/04/13 08:17:08;;;;;;;18.55;8.02;;;;;;;14.93;92.02;101124.50;5074541;28;20056;-56
2022/04/13 08:19:36;;;;;;;17.60;8.02;;;;;;;14.84;92.24;101120.94;5069524;28;20341;-56
2022/04/13 08:22:03;;;;;;;20.02;7.97;;;;;;;14.97;92.11;101127.41;5074617;28;20052;-57
2022/04/13 08:24:31;;;;;;;19.77;8.23;;;;;;;15.05;92.33;101134.88;5074404;28;20053;-56
2022/04/13 08:27:01;;;;;;;21.33;8.85;;;;;;;14.92;92.88;101133.16;5074491;28;20063;-59
2022/04/13 08:29:28;;;;;;;18.52;9.05;;;;;;;15.01;92.49;101136.72;5066371;28;20045;-58
2022/04/13 08:31:55;;;;;;;18.75;8.80;;;;;;;14.99;92.07;101136.22;5071927;28;20048;-57
2022/04/13 08:34:22;;;;;;;19.58;8.63;;;;;;;15.00;91.93;101137.84;5074559;28;20056;-57
2022/04/13 08:36:50;;;;;;;20.20;8.57;;;;;;;15.06;92.06;101142.06;5074299;28;20044;-55
2022/04/13 08:39:17;;;;;;;22.45;8.60;;;;;;;15.00;92.31;101152.53;5074219;28;20059;-57
2022/04/13 08:41:50;;;;;;;23.55;8.25;;;;;;;15.11;92.73;101155.75;5064583;28;20063;-59
2022/04/13 08:44:24;;;;;;;21.33;8.55;;;;;;;14.99;92.09;101159.25;5037084;28;20057;-56
2022/04/13 08:46:55;;;;;;;28.48;9.57;;;;;;;14.96;92.47;101159.09;5047497;28;20496;-57
2022/04/13 08:49:23;;;;;;;20.58;9.57;;;;;;;15.03;92.71;101167.72;5072807;28;20052;-57
2022/04/13 08:52:02;;;;;;;24.58;11.50;;;;;;;15.14;92.69;101166.19;5074302;28;20055;-54
2022/04/13 08:54:31;;;;;;;30.02;11.23;;;;;;;15.34;92.09;101171.78;5073733;28;20484;-58
2022/04/13 08:56:58;;;;;;;21.55;9.05;;;;;;;15.43;91.68;101180.94;5069453;28;20052;-55
2022/04/13 09:00:00;;;;;;;23.27;9.90;;;;;;;15.42;91.28;101181.28;5068892;28;20388;-59
2022/04/13 09:02:50;;;;;;;22.90;9.05;;;;;;;15.46;91.08;101191.34;5068131;28;20064;-56
2022/04/13 09:05:21;;;;;;;22.67;9.70;;;;;;;15.38;91.62;101181.09;5081222;28;20048;-59
2022/04/13 09:07:56;;;;;;;26.25;9.98;;;;;;;15.55;91.64;101188.56;5069141;28;20056;-57
2022/04/13 09:10:23;;;;;;;21.40;8.90;;;;;;;15.57;91.07;101192.63;5070069;28;20041;-57
2022/04/13 09:12:51;;;;;;;19.02;8.68;;;;;;;15.64;91.06;101192.91;5073564;28;20074;-56
2022/04/13 09:15:20;;;;;;;20.95;8.00;;;;;;;15.54;91.00;101193.28;5066008;28;20049;-54
2022/04/13 09:17:48;;;;;;;19.55;8.63;;;;;;;15.66;90.45;101203.66;5072624;28;20074;-54
2022/04/13 09:20:15;;;;;;;20.02;9.00;;;;;;;15.66;89.73;101201.72;5069216;28;20048;-56
2022/04/13 09:22:43;;;;;;;21.20;8.75;;;;;;;15.58;89.91;101208.16;5063502;28;20048;-55
2022/04/13 09:25:11;;;;;;;14.95;8.07;;;;;;;15.77;88.69;101208.53;5068662;28;20063;-56
2022/04/13 09:27:39;;;;;;;17.42;8.35;;;;;;;15.58;89.73;101213.69;5073243;28;20048;-54
2022/04/13 09:30:06;;;;;;;13.65;7.55;;;;;;;15.42;89.58;101217.34;5070303;28;20041;-56
2022/04/13 09:32:34;;;;;;;18.83;7.82;;;;;;;15.39;90.18;101220.78;5066177;28;20056;-56
2022/04/13 09:35:02;;;;;;;14.38;7.88;;;;;;;15.52;91.07;101225.31;5065949;28;20075;-53
2022/04/13 09:37:31;;;;;;;20.70;7.65;;;;;;;15.49;89.97;101229.59;5063233;28;20547;-56
2022/04/13 09:39:59;;;;;;;15.60;7.63;;;;;;;15.72;89.21;101227.34;5061401;28;20509;-55
2022/04/13 09:42:27;;;;;;;15.45;7.57;;;;;;;15.64;89.04;101228.19;5058557;28;20472;-54
2022/04/13 09:45:02;;;;;;;15.13;7.53;;;;;;;15.65;88.89;101225.09;5066262;28;20052;-55
2022/04/13 09:47:33;;;;;;;13.05;8.07;;;;;;;15.68;88.63;101229.97;5063562;28;20053;-56
2022/04/13 09:50:01;;;;;;;16.88;8.95;;;;;;;15.63;89.01;101226.56;5066242;28;20045;-55
2022/04/13 09:52:37;;;;;;;26.10;8.30;;;;;;;15.76;89.35;101226.31;5067804;28;20056;-56
2022/04/13 09:55:05;;;;;;;17.98;8.48;;;;;;;15.66;89.61;101229.50;5071671;28;20052;-58
2022/04/13 09:57:32;;;;;;;17.75;8.57;;;;;;;15.78;88.50;101220.44;5066215;28;20660;-57
2022/04/13 10:00:03;;;;;;;17.65;8.05;;;;;;;15.86;87.39;101227.09;5066940;28;20538;-54
2022/04/13 10:02:39;;;;;;;17.05;8.63;;;;;;;15.65;88.36;101216.75;5059534;28;20041;-56
2022/04/13 10:05:17;;;;;;;17.25;8.65;;;;;;;15.51;88.03;101220.91;5063086;28;20049;-54
2022/04/13 10:07:44;;;;;;;14.48;7.80;;;;;;;15.54;89.10;101221.06;5077242;28;20053;-57
2022/04/13 10:10:24;;;;;;;15.82;8.68;;;;;;;15.29;89.81;101224.72;5078648;28;20060;-59
2022/04/13 10:12:54;;;;;;;16.63;8.32;;;;;;;15.47;89.92;101231.06;5076378;28;20045;-56
2022/04/13 10:15:21;;;;;;;13.60;7.97;;;;;;;15.46;89.28;101226.66;5089108;28;20353;-54
2022/04/13 10:17:49;;;;;;;13.95;6.82;;;;;;;15.77;87.92;101225.19;5076524;28;20048;-54
2022/04/13 10:20:16;;;;;;;16.10;9.23;;;;;;;15.77;87.11;101229.91;5071885;28;20428;-54
2022/04/13 10:22:59;;;;;;;36.30;23.13;;;;;;;15.76;87.31;101226.31;5074690;28;20407;-54
2022/04/13 10:25:27;;;;;;;24.20;15.23;;;;;;;15.87;86.74;101226.75;5073358;28;20067;-56
2022/04/13 10:27:58;;;;;;;17.60;9.25;;;;;;;15.98;85.70;101229.94;5071921;28;20049;-57
2022/04/13 10:30:28;;;;;;;15.70;8.02;;;;;;;16.04;85.85;101228.63;5070848;28;20510;-58
2022/04/13 10:32:58;;;;;;;17.75;8.13;;;;;;;15.76;86.75;101231.06;5063201;28;20055;-56
2022/04/13 10:35:26;;;;;;;18.00;8.10;;;;;;;15.90;87.25;101236.38;5053987;28;20065;-53
2022/04/13 10:37:55;;;;;;;15.50;7.13;;;;;;;15.89;87.04;101237.53;5071339;28;20488;-57
2022/04/13 10:40:29;;;;;;;15.05;7.25;;;;;;;16.20;85.82;101241.56;5074708;28;20052;-56
2022/04/13 10:43:02;;;;;;;12.98;6.55;;;;;;;16.22;85.59;101241.22;5058704;28;20075;-56
2022/04/13 10:45:30;;;;;;;41.95;21.20;;;;;;;16.25;84.98;101235.00;5069075;28;20053;-53
2022/04/13 10:48:05;;;;;;;26.33;15.07;;;;;;;16.16;84.34;101242.59;5074509;28;20059;-56
2022/04/13 10:50:55;;;;;;;21.63;12.60;;;;;;;16.24;84.49;101241.69;5075498;28;20045;-55
2022/04/13 10:53:28;;;;;;;40.10;28.92;;;;;;;16.45;83.91;101237.78;5073257;28;20056;-57
2022/04/13 10:56:01;;;;;;;29.95;21.25;;;;;;;16.49;83.39;101241.50;5067170;28;20074;-61
2022/04/13 10:58:50;;;;;;;24.38;17.95;;;;;;;16.93;81.58;101236.38;5075438;28;20060;-58
2022/04/13 11:01:19;;;;;;;19.08;13.07;;;;;;;17.04;80.18;101243.94;5075988;28;20048;-57
2022/04/13 11:03:47;;;;;;;18.70;10.45;;;;;;;16.80;80.60;101243.88;5066097;28;20053;-57
2022/04/13 11:06:15;;;;;;;17.35;9.13;;;;;;;16.68;80.34;101238.25;5065211;28;20055;-58
2022/04/13 11:09:09;;;;;;;13.95;6.45;;;;;;;16.61;80.73;101238.00;5071491;28;20044;-58
2022/04/13 11:11:37;;;;;;;15.43;7.95;;;;;;;16.95;79.46;101231.25;5075756;28;20068;-58
2022/04/13 11:14:20;;;;;;;9.93;5.20;;;;;;;16.88;79.07;101236.59;5073764;28;20399;-58
2022/04/13 11:16:52;;;;;;;11.77;4.93;;;;;;;16.75;79.39;101236.53;5079520;28;20503;-61
2022/04/13 11:19:20;;;;;;;8.55;4.20;;;;;;;16.58;78.93;101230.34;5058040;28;20041;-58
2022/04/13 11:21:51;;;;;;;14.70;4.38;;;;;;;16.65;78.59;101220.28;5070239;28;20052;-58
2022/04/13 11:24:47;;;;;;;9.88;4.85;;;;;;;16.92;78.86;101231.94;5073192;28;20546;-59
2022/04/13 11:27:15;;;;;;;16.75;10.00;;;;;;;16.77;79.26;101236.22;5054313;28;20053;-54